createdAt,value
2018-06-05T00:02:00.180Z,4.53
2018-06-05T00:07:55.222Z,5.07
2018-06-05T00:13:50.196Z,7.59
2018-06-05T00:19:45.205Z,4.2
2018-06-05T00:25:40.225Z,4.16
2018-06-05T00:31:35.273Z,5.54
2018-06-05T00:37:30.213Z,4.71
2018-06-05T00:43:25.191Z,5.34
2018-06-05T00:49:20.221Z,4.57
2018-06-05T00:55:15.290Z,5.82
2018-06-05T01:01:10.263Z,4.06
2018-06-05T01:07:05.196Z,5.4
2018-06-05T01:13:00.216Z,6.49
2018-06-05T01:18:55.280Z,4.63
2018-06-05T01:24:50.254Z,4.28
2018-06-05T01:30:45.243Z,3.76
2018-06-05T01:36:40.214Z,5.34
2018-06-05T01:42:35.309Z,4.99
2018-06-05T01:48:30.236Z,6.57
2018-06-05T01:54:25.256Z,6.89
2018-06-05T02:00:20.258Z,6.59
2018-06-05T02:06:15.257Z,6.9
2018-06-05T02:12:10.213Z,5.13
2018-06-05T02:18:05.237Z,7.22
2018-06-05T02:24:00.270Z,10.37
2018-06-05T02:29:55.235Z,9.08
2018-06-05T02:35:50.250Z,5.57
2018-06-05T02:41:45.215Z,6.29
2018-06-05T02:47:40.246Z,6.66
2018-06-05T02:53:35.208Z,5.7
2018-06-05T02:59:30.211Z,4.11
2018-06-05T03:05:25.667Z,5.6
2018-06-05T03:11:20.250Z,5.95
2018-06-05T03:17:15.228Z,5.72
2018-06-05T03:23:10.193Z,6.94
2018-06-05T03:29:05.243Z,4.77
2018-06-05T03:35:00.264Z,4.8
2018-06-05T03:40:55.265Z,5.28
2018-06-05T03:46:50.325Z,8.23
2018-06-05T03:52:45.247Z,9.5
2018-06-05T03:58:40.258Z,4.65
2018-06-05T04:04:35.250Z,8.22
2018-06-05T04:10:30.276Z,7.98
2018-06-05T04:16:25.225Z,5.15
2018-06-05T04:22:20.296Z,7.35
2018-06-05T04:28:15.248Z,7.1
2018-06-05T04:34:10.247Z,6.66
2018-06-05T04:40:05.270Z,6.81
2018-06-05T04:46:00.247Z,9.1
2018-06-05T04:51:55.245Z,9.04
2018-06-05T04:57:50.319Z,9.65
2018-06-05T05:03:45.213Z,8.18
2018-06-05T05:09:40.305Z,11.43
2018-06-05T05:15:35.213Z,8.2
2018-06-05T05:21:30.267Z,9.38
2018-06-05T05:27:25.269Z,6.55
2018-06-05T05:33:20.279Z,7.21
2018-06-05T05:39:15.343Z,10.77
2018-06-05T05:45:10.586Z,10.58
2018-06-05T05:51:05.265Z,10.43
2018-06-05T05:57:00.268Z,8.02
2018-06-05T06:02:55.266Z,7.4
2018-06-05T06:08:50.281Z,7.16
2018-06-05T06:14:45.278Z,8.82
2018-06-05T06:20:40.418Z,8.21
2018-06-05T06:26:35.479Z,8.51
2018-06-05T06:32:30.287Z,7.65
2018-06-05T06:38:25.796Z,10.53
2018-06-05T06:44:20.268Z,11.54
2018-06-05T06:50:15.261Z,9
2018-06-05T06:56:10.346Z,7.82
2018-06-05T07:02:05.285Z,9.63
2018-06-05T07:08:00.251Z,7.68
2018-06-05T07:13:55.285Z,9.72
2018-06-05T07:19:50.255Z,9.5
2018-06-05T07:25:45.334Z,9.63
2018-06-05T07:31:40.918Z,11.73
2018-06-05T07:37:35.271Z,9.04
2018-06-05T07:43:30.323Z,12.71
2018-06-05T07:49:25.335Z,12.31
2018-06-05T07:55:20.423Z,8.03
2018-06-05T08:01:15.341Z,10.34
2018-06-05T08:07:10.572Z,13.88
2018-06-05T08:13:05.287Z,8.42
2018-06-05T08:19:00.284Z,9.75
2018-06-05T08:24:55.304Z,12.23
2018-06-05T08:30:50.289Z,10.75
2018-06-05T08:36:45.298Z,13.55
2018-06-05T08:42:40.390Z,11.17
2018-06-05T08:48:35.330Z,9.07
2018-06-05T08:54:30.330Z,11.08
2018-06-05T09:00:25.674Z,9.25
2018-06-05T09:06:20.287Z,12.62
2018-06-05T09:12:15.326Z,12.47
2018-06-05T09:18:10.366Z,13.95
2018-06-05T09:24:05.330Z,10.41
2018-06-05T09:30:00.304Z,13.4
2018-06-05T09:35:55.340Z,11.87
2018-06-05T09:41:50.320Z,14.84
2018-06-05T09:47:45.315Z,8.04
2018-06-05T09:53:40.305Z,9.6
2018-06-05T09:59:35.321Z,10.98
2018-06-05T10:05:30.337Z,12.32
2018-06-05T10:11:25.350Z,13.13
2018-06-05T10:17:20.327Z,12.19
2018-06-05T10:23:15.345Z,11
2018-06-05T10:29:10.332Z,8.1
2018-06-05T10:35:05.347Z,9.94
2018-06-05T10:41:00.331Z,7.9
2018-06-05T10:46:55.372Z,12.31
2018-06-05T10:52:50.340Z,9.04
2018-06-05T10:58:45.373Z,9.14
2018-06-05T11:04:40.357Z,9.19
2018-06-05T11:10:35.370Z,8.41
2018-06-05T11:16:30.405Z,8.93
2018-06-05T11:22:25.347Z,8.03
2018-06-05T11:28:20.386Z,8.56
2018-06-05T11:34:15.410Z,7.81
2018-06-05T11:40:10.356Z,10.5
2018-06-05T11:46:05.375Z,11.08
2018-06-05T11:52:00.316Z,9.87
2018-06-05T11:57:55.388Z,9.61
2018-06-05T12:03:50.401Z,7.07
2018-06-05T12:09:45.344Z,7.4
2018-06-05T12:15:40.397Z,9.44
2018-06-05T12:21:35.381Z,8.62
2018-06-05T12:27:30.398Z,6.21
2018-06-05T12:33:25.362Z,6.71
2018-06-05T12:39:20.437Z,7.05
2018-06-05T12:45:15.447Z,8.51
2018-06-05T12:51:10.394Z,5.69
2018-06-05T12:57:05.392Z,7.74
2018-06-05T13:03:00.529Z,6.43
2018-06-05T13:08:55.414Z,8.78
2018-06-05T13:14:50.394Z,7.63
2018-06-05T13:20:45.472Z,8.17
2018-06-05T13:26:40.402Z,6.08
2018-06-05T13:32:35.390Z,3.49
2018-06-05T13:38:30.518Z,6.98
2018-06-05T13:44:25.441Z,4.06
2018-06-05T13:50:20.456Z,5.7
2018-06-05T13:56:15.416Z,4.54
2018-06-05T14:02:10.386Z,3.44
2018-06-05T14:08:05.509Z,7.93
2018-06-05T14:14:00.405Z,4.6
2018-06-05T14:19:55.488Z,3.69
2018-06-05T14:25:50.403Z,3.47
2018-06-05T14:31:45.477Z,3.29
2018-06-05T14:37:40.431Z,5
2018-06-05T14:43:35.417Z,4.6
2018-06-05T14:49:30.448Z,3.92
2018-06-05T14:55:25.442Z,3.34
2018-06-05T15:01:20.421Z,4.57
2018-06-05T15:07:15.397Z,2.56
2018-06-05T15:13:10.582Z,2.45
2018-06-05T15:19:05.454Z,1.7
2018-06-05T15:25:00.446Z,3.12
2018-06-05T15:30:55.479Z,2.06
2018-06-05T15:36:50.490Z,4.09
2018-06-05T15:42:45.482Z,2.01
2018-06-05T15:48:40.436Z,5.51
2018-06-05T15:54:35.511Z,4.15
2018-06-05T16:00:30.475Z,2.91
2018-06-05T16:06:25.460Z,2.97
2018-06-05T16:12:20.519Z,3.91
2018-06-05T16:18:15.528Z,5.02
2018-06-05T16:24:10.455Z,2.41
2018-06-05T16:30:05.921Z,3.5
2018-06-05T16:36:00.549Z,1.97
2018-06-05T16:41:55.516Z,2.27
2018-06-05T16:47:50.490Z,3.48
2018-06-05T16:53:45.483Z,1.89
2018-06-05T16:59:40.497Z,1.96
2018-06-05T17:05:35.506Z,2.73
2018-06-05T17:11:30.578Z,5.17
2018-06-05T17:17:25.532Z,3.47
2018-06-05T17:23:20.489Z,2.66
2018-06-05T17:29:15.482Z,8.57
2018-06-05T17:35:10.502Z,6.41
2018-06-05T17:41:05.498Z,8.6
2018-06-05T17:47:00.510Z,23.19
2018-06-05T17:52:55.543Z,13.95
2018-06-05T17:58:50.510Z,6.9
2018-06-05T18:04:45.517Z,8.73
2018-06-05T18:10:40.511Z,14.36
2018-06-05T18:16:35.519Z,5.08
2018-06-05T18:22:30.534Z,6.3
2018-06-05T18:28:25.548Z,4.01
2018-06-05T18:34:20.519Z,3.5
2018-06-05T18:40:15.509Z,3.42
2018-06-05T18:46:10.566Z,3.23
2018-06-05T18:52:05.503Z,4.1
2018-06-05T18:58:00.544Z,3.74
2018-06-05T19:03:55.592Z,4.34
2018-06-05T19:09:50.530Z,5.76
2018-06-05T19:15:45.519Z,8.44
2018-06-05T19:21:40.537Z,6.17
2018-06-05T19:27:35.564Z,8.18
2018-06-05T19:33:30.562Z,7.74
2018-06-05T19:39:25.554Z,4.46
2018-06-05T19:45:20.521Z,6.49
2018-06-05T19:51:15.567Z,5.27
2018-06-05T19:57:10.542Z,4.4
2018-06-05T20:03:05.565Z,8.23
2018-06-05T20:09:00.560Z,7.89
2018-06-05T20:14:55.551Z,4.95
2018-06-05T20:20:50.636Z,12.52
2018-06-05T20:26:45.605Z,5.94
2018-06-05T20:32:40.565Z,6.27
2018-06-05T20:38:35.586Z,8.96
2018-06-05T20:44:30.584Z,8.25
2018-06-05T20:50:25.543Z,6.66
2018-06-05T20:56:20.607Z,5.16
2018-06-05T21:02:15.612Z,5.31
2018-06-05T21:08:10.567Z,6.03
2018-06-05T21:14:05.668Z,7.51
2018-06-05T21:20:00.584Z,5.32
2018-06-05T21:25:55.616Z,5.2
2018-06-05T21:31:50.583Z,6.33
2018-06-05T21:37:45.593Z,5.11
2018-06-05T21:43:40.678Z,7.11
2018-06-05T21:49:35.618Z,5.98
2018-06-05T21:55:30.583Z,4.83
2018-06-05T22:01:25.638Z,5.53
2018-06-05T22:07:20.561Z,6.37
2018-06-05T22:13:15.621Z,4.47
2018-06-05T22:19:10.595Z,7.5
2018-06-05T22:25:05.589Z,5.9
2018-06-05T22:31:00.642Z,5.54
2018-06-05T22:36:55.641Z,4.89
2018-06-05T22:42:50.653Z,5.74
2018-06-05T22:48:45.604Z,10.04
2018-06-05T22:54:40.610Z,5.97
2018-06-05T23:00:35.687Z,4.93
2018-06-05T23:06:30.842Z,7.11
2018-06-05T23:12:25.623Z,7.64
2018-06-05T23:18:20.617Z,5.97
2018-06-05T23:24:15.587Z,6.09
2018-06-05T23:30:10.601Z,5.35
2018-06-05T23:36:05.678Z,6.3
2018-06-05T23:42:00.576Z,7.19
2018-06-05T23:47:55.596Z,6.15
2018-06-05T23:53:50.600Z,6.21
2018-06-05T23:59:45.634Z,7.57
